createdAt,value
2022-12-31T00:00:47.724Z,2.55
2022-12-31T00:03:14.708Z,2.61
2022-12-31T00:05:44.566Z,2.62
2022-12-31T00:08:11.590Z,2.55
2022-12-31T00:10:38.518Z,2.39
2022-12-31T00:13:05.583Z,2.34
2022-12-31T00:15:32.646Z,2.15
2022-12-31T00:17:59.484Z,2.14
2022-12-31T00:20:26.533Z,1.77
2022-12-31T00:22:53.524Z,1.83
2022-12-31T00:25:20.651Z,1.92
2022-12-31T00:27:47.680Z,1.93
2022-12-31T00:30:15.010Z,2.02
2022-12-31T00:32:42.455Z,2.03
2022-12-31T00:35:09.770Z,2.14
2022-12-31T00:37:36.937Z,2.26
2022-12-31T00:40:04.985Z,2.30
2022-12-31T00:42:31.869Z,2.28
2022-12-31T00:44:58.847Z,1.94
2022-12-31T00:47:25.733Z,1.63
2022-12-31T00:49:52.867Z,1.28
2022-12-31T00:52:19.885Z,1.20
2022-12-31T00:54:46.917Z,1.35
2022-12-31T00:57:13.947Z,1.65
2022-12-31T00:59:40.971Z,1.81
2022-12-31T01:02:08.038Z,1.90
2022-12-31T01:04:35.198Z,1.96
2022-12-31T01:07:02.180Z,2.01
2022-12-31T01:09:29.137Z,1.99
2022-12-31T01:11:56.027Z,1.89
2022-12-31T01:14:23.467Z,1.86
2022-12-31T01:16:52.760Z,1.67
2022-12-31T01:19:24.584Z,1.44
2022-12-31T01:21:52.784Z,1.22
2022-12-31T01:24:20.554Z,1.25
2022-12-31T01:26:47.848Z,1.00
2022-12-31T01:29:15.376Z,1.23
2022-12-31T01:31:42.241Z,1.40
2022-12-31T01:34:09.241Z,1.48
2022-12-31T01:36:37.289Z,1.49
2022-12-31T01:39:06.884Z,1.65
2022-12-31T01:41:42.469Z,1.61
2022-12-31T01:44:12.484Z,1.07
2022-12-31T01:46:46.994Z,1.09
2022-12-31T01:49:21.666Z,1.19
2022-12-31T01:52:00.644Z,1.33
2022-12-31T01:54:34.103Z,1.36
2022-12-31T01:57:01.976Z,1.34
2022-12-31T01:59:29.732Z,1.50
2022-12-31T02:01:56.999Z,1.61
2022-12-31T02:04:26.493Z,1.62
2022-12-31T02:07:13.807Z,1.62
2022-12-31T02:09:42.290Z,1.64
2022-12-31T02:12:10.267Z,1.69
2022-12-31T02:14:48.132Z,1.74
2022-12-31T02:17:32.036Z,1.76
2022-12-31T02:20:18.927Z,1.73
2022-12-31T02:22:48.514Z,1.54
2022-12-31T02:25:45.817Z,1.22
2022-12-31T02:28:39.029Z,1.52
2022-12-31T02:31:46.272Z,1.38
2022-12-31T02:34:25.917Z,1.32
2022-12-31T02:36:57.029Z,1.32
2022-12-31T02:39:24.184Z,1.25
2022-12-31T02:41:52.179Z,1.20
2022-12-31T02:44:25.170Z,1.27
2022-12-31T02:47:09.261Z,1.12
2022-12-31T02:50:18.149Z,1.04
2022-12-31T02:53:10.321Z,0.79
2022-12-31T02:55:58.806Z,0.54
2022-12-31T02:59:01.915Z,0.50
2022-12-31T03:01:36.241Z,0.49
2022-12-31T03:04:04.703Z,0.47
2022-12-31T03:06:31.822Z,0.45
2022-12-31T03:09:02.898Z,0.62
2022-12-31T03:11:29.771Z,0.49
2022-12-31T03:13:56.752Z,0.49
2022-12-31T03:16:23.674Z,0.29
2022-12-31T03:18:50.665Z,0.30
2022-12-31T03:21:17.642Z,0.41
2022-12-31T03:23:45.104Z,0.54
2022-12-31T03:26:12.812Z,0.56
2022-12-31T03:28:42.111Z,0.46
2022-12-31T03:31:09.615Z,0.66
2022-12-31T03:33:39.627Z,0.60
2022-12-31T03:36:09.972Z,0.33
2022-12-31T03:38:37.253Z,0.51
2022-12-31T03:41:04.620Z,0.66
2022-12-31T03:43:31.879Z,0.60
2022-12-31T03:45:58.818Z,0.65
2022-12-31T03:48:25.760Z,0.79
2022-12-31T03:50:52.780Z,0.87
2022-12-31T03:53:19.888Z,0.52
2022-12-31T03:55:51.712Z,0.46
2022-12-31T03:58:18.687Z,0.16
2022-12-31T04:00:45.591Z,0.07
2022-12-31T04:03:12.533Z,0.39
2022-12-31T04:05:39.513Z,0.50
2022-12-31T04:08:06.414Z,0.57
2022-12-31T04:10:33.452Z,0.51
2022-12-31T04:13:00.287Z,0.54
2022-12-31T04:15:27.190Z,0.71
2022-12-31T04:17:54.193Z,0.84
2022-12-31T04:20:21.117Z,0.96
2022-12-31T04:22:48.076Z,1.10
2022-12-31T04:25:15.109Z,1.09
2022-12-31T04:27:42.910Z,1.03
2022-12-31T04:30:11.601Z,1.01
2022-12-31T04:32:38.453Z,1.08
2022-12-31T04:35:05.797Z,0.94
2022-12-31T04:37:32.746Z,1.05
2022-12-31T04:40:05.371Z,1.07
2022-12-31T04:42:32.993Z,0.91
2022-12-31T04:44:59.997Z,1.00
2022-12-31T04:47:26.869Z,0.85
2022-12-31T04:49:53.834Z,0.87
2022-12-31T04:52:20.796Z,0.84
2022-12-31T04:54:47.782Z,0.88
2022-12-31T04:57:14.785Z,0.85
2022-12-31T04:59:41.697Z,0.94
2022-12-31T05:02:08.781Z,0.76
2022-12-31T05:04:35.802Z,0.66
2022-12-31T05:07:02.829Z,0.42
2022-12-31T05:09:29.751Z,0.37
2022-12-31T05:11:56.902Z,0.44
2022-12-31T05:14:23.748Z,0.46
2022-12-31T05:16:50.737Z,0.42
2022-12-31T05:19:17.939Z,0.43
2022-12-31T05:21:44.811Z,0.54
2022-12-31T05:24:11.689Z,0.93
2022-12-31T05:26:38.695Z,1.25
2022-12-31T05:29:05.655Z,1.29
2022-12-31T05:31:32.668Z,1.27
2022-12-31T05:33:59.510Z,1.37
2022-12-31T05:36:26.528Z,1.44
2022-12-31T05:38:53.438Z,1.44
2022-12-31T05:41:20.397Z,1.17
2022-12-31T05:43:47.201Z,1.01
2022-12-31T05:46:14.334Z,1.23
2022-12-31T05:48:41.333Z,1.32
2022-12-31T05:51:08.226Z,1.33
2022-12-31T05:53:35.228Z,1.24
2022-12-31T05:56:02.255Z,1.06
2022-12-31T05:58:29.179Z,1.03
2022-12-31T06:00:56.112Z,0.96
2022-12-31T06:03:23.068Z,0.98
2022-12-31T06:05:50.070Z,0.83
2022-12-31T06:08:17.208Z,0.74
2022-12-31T06:10:44.104Z,0.66
2022-12-31T06:13:11.156Z,0.76
2022-12-31T06:15:39.893Z,0.69
2022-12-31T06:18:06.992Z,0.79
2022-12-31T06:20:36.702Z,0.75
2022-12-31T06:23:04.275Z,0.68
2022-12-31T06:25:31.364Z,0.87
2022-12-31T06:27:58.366Z,0.89
2022-12-31T06:30:25.314Z,0.66
2022-12-31T06:32:52.301Z,0.72
2022-12-31T06:35:19.320Z,0.63
2022-12-31T06:37:46.582Z,0.62
2022-12-31T06:40:13.840Z,0.76
2022-12-31T06:42:41.740Z,0.79
2022-12-31T06:45:08.937Z,0.95
2022-12-31T06:47:35.912Z,0.77
2022-12-31T06:50:02.995Z,1.03
2022-12-31T06:52:30.030Z,1.21
2022-12-31T06:54:57.293Z,1.17
2022-12-31T06:57:24.675Z,1.07
2022-12-31T06:59:51.911Z,1.22
2022-12-31T07:02:36.535Z,1.15
2022-12-31T07:05:32.016Z,0.88
2022-12-31T07:08:06.311Z,0.83
2022-12-31T07:11:08.669Z,0.74
2022-12-31T07:13:41.576Z,0.72
2022-12-31T07:16:11.542Z,0.61
2022-12-31T07:18:52.213Z,0.68
2022-12-31T07:21:30.623Z,0.76
2022-12-31T07:23:57.774Z,0.79
2022-12-31T07:26:49.948Z,0.89
2022-12-31T07:29:30.310Z,1.05
2022-12-31T07:32:00.180Z,1.17
2022-12-31T07:34:51.076Z,1.14
2022-12-31T07:37:48.164Z,1.06
2022-12-31T07:40:36.546Z,1.07
2022-12-31T07:43:34.667Z,0.89
2022-12-31T07:46:13.655Z,1.02
2022-12-31T07:48:40.876Z,1.11
2022-12-31T07:51:10.440Z,1.18
2022-12-31T07:53:37.778Z,1.12
2022-12-31T07:56:07.422Z,1.20
2022-12-31T07:58:40.159Z,0.98
2022-12-31T08:01:12.029Z,0.89
2022-12-31T08:04:14.389Z,0.93
2022-12-31T08:07:16.439Z,0.95
2022-12-31T08:09:51.271Z,1.27
2022-12-31T08:12:19.679Z,1.23
2022-12-31T08:14:48.120Z,1.34
2022-12-31T08:17:17.725Z,1.59
2022-12-31T08:19:45.609Z,1.42
2022-12-31T08:22:24.654Z,1.12
2022-12-31T08:25:09.916Z,0.97
2022-12-31T08:28:13.327Z,1.01
2022-12-31T08:31:05.863Z,1.17
2022-12-31T08:33:41.514Z,1.19
2022-12-31T08:36:36.206Z,1.00
2022-12-31T08:39:07.850Z,0.94
2022-12-31T08:41:45.233Z,0.95
2022-12-31T08:44:36.165Z,1.03
2022-12-31T08:47:03.013Z,1.17
2022-12-31T08:49:33.217Z,1.21
2022-12-31T08:52:00.915Z,1.20
2022-12-31T08:54:28.435Z,1.36
2022-12-31T08:57:04.305Z,1.34
2022-12-31T09:00:02.068Z,1.25
2022-12-31T09:02:58.725Z,1.29
2022-12-31T09:05:50.241Z,1.23
2022-12-31T09:08:47.683Z,1.22
2022-12-31T09:11:23.773Z,1.40
2022-12-31T09:14:21.712Z,1.54
2022-12-31T09:17:00.450Z,1.62
2022-12-31T09:19:27.981Z,1.66
2022-12-31T09:21:55.940Z,1.70
2022-12-31T09:24:23.333Z,1.76
2022-12-31T09:27:15.893Z,2.13
2022-12-31T09:30:01.499Z,2.25
2022-12-31T09:32:58.654Z,2.24
2022-12-31T09:35:33.339Z,2.20
2022-12-31T09:38:29.341Z,2.22
2022-12-31T09:41:37.262Z,2.23
2022-12-31T09:44:24.968Z,2.21
2022-12-31T09:47:21.618Z,2.15
2022-12-31T09:50:15.813Z,2.16
2022-12-31T09:52:42.779Z,2.37
2022-12-31T09:55:12.487Z,2.58
2022-12-31T09:57:40.847Z,2.77
2022-12-31T10:00:34.133Z,2.65
2022-12-31T10:03:11.199Z,2.51
2022-12-31T10:06:03.994Z,2.56
2022-12-31T10:08:55.075Z,2.67
2022-12-31T10:11:42.090Z,2.74
2022-12-31T10:14:30.327Z,2.81
2022-12-31T10:17:12.231Z,3.00
2022-12-31T10:19:42.212Z,3.15
2022-12-31T10:22:44.317Z,3.06
2022-12-31T10:25:38.737Z,3.19
2022-12-31T10:28:27.565Z,3.47
2022-12-31T10:31:12.751Z,3.44
2022-12-31T10:34:13.140Z,3.40
2022-12-31T10:36:53.265Z,3.26
2022-12-31T10:39:29.462Z,3.18
2022-12-31T10:42:16.907Z,3.17
2022-12-31T10:44:55.119Z,3.31
2022-12-31T10:47:47.564Z,3.64
2022-12-31T10:50:51.753Z,3.95
2022-12-31T10:53:46.410Z,3.91
2022-12-31T10:56:31.923Z,3.84
2022-12-31T10:59:17.399Z,3.66
2022-12-31T11:02:21.868Z,3.60
2022-12-31T11:05:23.124Z,3.77
2022-12-31T11:08:11.093Z,3.60
2022-12-31T11:10:54.061Z,3.64
2022-12-31T11:13:40.265Z,3.73
2022-12-31T11:16:36.135Z,3.57
2022-12-31T11:19:35.795Z,3.55
2022-12-31T11:22:25.816Z,3.51
2022-12-31T11:24:52.638Z,3.53
2022-12-31T11:27:50.568Z,3.61
2022-12-31T11:30:38.886Z,3.59
2022-12-31T11:33:18.113Z,3.90
2022-12-31T11:35:55.758Z,3.74
2022-12-31T11:38:28.983Z,3.65
2022-12-31T11:41:20.403Z,3.51
2022-12-31T11:43:50.178Z,3.36
2022-12-31T11:46:35.365Z,3.35
2022-12-31T11:49:02.366Z,3.45
2022-12-31T11:52:00.079Z,3.45
2022-12-31T11:54:46.529Z,3.58
2022-12-31T11:57:28.202Z,3.34
2022-12-31T11:59:59.587Z,3.28
2022-12-31T12:02:34.665Z,3.26
2022-12-31T12:05:10.561Z,3.30
2022-12-31T12:07:38.682Z,3.39
2022-12-31T12:10:26.874Z,3.58
2022-12-31T12:13:00.004Z,3.76
2022-12-31T12:15:31.698Z,3.49
2022-12-31T12:18:05.067Z,3.52
2022-12-31T12:20:37.370Z,3.62
2022-12-31T12:23:25.721Z,3.89
2022-12-31T12:25:53.002Z,3.92
2022-12-31T12:28:25.469Z,4.01
2022-12-31T12:31:02.611Z,4.22
2022-12-31T12:33:31.332Z,4.11
2022-12-31T12:36:13.385Z,4.04
2022-12-31T12:38:40.804Z,4.18
2022-12-31T12:41:19.248Z,4.21
2022-12-31T12:43:46.559Z,4.40
2022-12-31T12:46:27.757Z,4.44
2022-12-31T12:48:57.140Z,4.37
2022-12-31T12:51:48.581Z,4.24
2022-12-31T12:54:34.358Z,4.13
2022-12-31T12:57:31.230Z,4.18
2022-12-31T13:00:20.254Z,4.11
2022-12-31T13:03:21.244Z,3.92
2022-12-31T13:06:09.979Z,3.83
2022-12-31T13:08:51.424Z,4.18
2022-12-31T13:11:24.265Z,4.17
2022-12-31T13:14:10.220Z,4.12
2022-12-31T13:16:42.885Z,4.14
2022-12-31T13:19:31.003Z,4.39
2022-12-31T13:22:23.337Z,4.23
2022-12-31T13:25:08.686Z,4.08
2022-12-31T13:27:39.459Z,4.10
2022-12-31T13:30:40.635Z,4.46
2022-12-31T13:33:24.650Z,4.61
2022-12-31T13:36:05.622Z,4.73
2022-12-31T13:38:41.748Z,4.48
2022-12-31T13:41:15.154Z,3.97
2022-12-31T13:43:53.788Z,4.22
2022-12-31T13:46:41.863Z,4.27
2022-12-31T13:49:46.614Z,4.50
2022-12-31T13:52:32.774Z,3.93
2022-12-31T13:55:24.087Z,3.74
2022-12-31T13:58:32.589Z,4.06
2022-12-31T14:01:18.530Z,4.33
2022-12-31T14:04:11.741Z,3.96
2022-12-31T14:06:53.815Z,3.64
2022-12-31T14:09:25.648Z,3.90
2022-12-31T14:12:24.178Z,3.99
2022-12-31T14:15:18.510Z,3.96
2022-12-31T14:18:10.042Z,4.13
2022-12-31T14:20:57.075Z,4.24
2022-12-31T14:23:40.333Z,4.34
2022-12-31T14:26:20.292Z,4.47
2022-12-31T14:29:11.320Z,4.61
2022-12-31T14:31:50.364Z,4.35
2022-12-31T14:34:17.492Z,4.50
2022-12-31T14:37:09.523Z,4.52
2022-12-31T14:40:19.243Z,4.58
2022-12-31T14:43:12.131Z,4.54
2022-12-31T14:45:39.040Z,3.83
2022-12-31T14:48:47.524Z,3.94
2022-12-31T14:51:15.074Z,3.67
2022-12-31T14:53:52.584Z,3.66
2022-12-31T14:56:40.850Z,3.94
2022-12-31T14:59:40.831Z,4.19
2022-12-31T15:02:28.189Z,3.88
2022-12-31T15:05:11.600Z,3.54
2022-12-31T15:07:47.580Z,3.72
2022-12-31T15:10:23.689Z,4.05
2022-12-31T15:13:09.793Z,4.23
2022-12-31T15:16:27.291Z,4.16
2022-12-31T15:18:54.242Z,4.23
2022-12-31T15:21:41.692Z,3.57
2022-12-31T15:24:34.975Z,3.39
2022-12-31T15:27:05.091Z,3.65
2022-12-31T15:29:36.644Z,3.83
2022-12-31T15:32:07.773Z,4.04
2022-12-31T15:34:36.768Z,4.18
2022-12-31T15:37:27.877Z,4.25
2022-12-31T15:40:08.025Z,4.26
2022-12-31T15:42:50.033Z,4.38
2022-12-31T15:45:26.165Z,4.39
2022-12-31T15:47:58.885Z,4.44
2022-12-31T15:50:26.329Z,4.54
2022-12-31T15:52:57.752Z,4.62
2022-12-31T15:55:33.025Z,4.69
2022-12-31T15:58:22.789Z,4.70
2022-12-31T16:01:01.825Z,4.62
2022-12-31T16:03:31.328Z,4.67
2022-12-31T16:06:03.891Z,4.66
2022-12-31T16:08:35.341Z,4.65
2022-12-31T16:11:05.387Z,4.15
2022-12-31T16:13:35.193Z,4.07
2022-12-31T16:16:21.554Z,4.33
2022-12-31T16:18:48.650Z,4.44
2022-12-31T16:21:46.082Z,4.57
2022-12-31T16:24:35.213Z,4.56
2022-12-31T16:27:12.672Z,4.63
2022-12-31T16:29:46.434Z,4.53
2022-12-31T16:32:17.406Z,4.65
2022-12-31T16:34:45.502Z,4.59
2022-12-31T16:37:20.720Z,4.61
2022-12-31T16:39:56.551Z,4.55
2022-12-31T16:42:32.943Z,4.55
2022-12-31T16:45:18.596Z,4.55
2022-12-31T16:47:45.748Z,4.47
2022-12-31T16:50:17.818Z,4.61
2022-12-31T16:52:48.183Z,4.71
2022-12-31T16:55:22.053Z,4.74
2022-12-31T16:58:13.772Z,4.42
2022-12-31T17:00:41.669Z,4.54
2022-12-31T17:03:17.391Z,4.48
2022-12-31T17:05:58.897Z,4.32
2022-12-31T17:08:43.239Z,4.26
2022-12-31T17:11:28.115Z,4.31
2022-12-31T17:14:16.554Z,4.20
2022-12-31T17:17:08.134Z,3.33
2022-12-31T17:19:42.026Z,3.61
2022-12-31T17:22:34.376Z,3.66
2022-12-31T17:25:14.835Z,3.67
2022-12-31T17:27:53.501Z,3.98
2022-12-31T17:30:27.899Z,4.10
2022-12-31T17:33:01.056Z,4.14
2022-12-31T17:35:39.542Z,3.67
2022-12-31T17:38:30.407Z,3.25
2022-12-31T17:41:06.575Z,3.24
2022-12-31T17:43:36.000Z,3.47
2022-12-31T17:46:08.991Z,3.27
2022-12-31T17:48:37.182Z,3.34
2022-12-31T17:51:04.373Z,3.48
2022-12-31T17:53:31.273Z,3.52
2022-12-31T17:56:04.426Z,3.66
2022-12-31T17:58:45.254Z,3.76
2022-12-31T18:01:15.536Z,3.74
2022-12-31T18:03:42.664Z,3.75
2022-12-31T18:06:16.388Z,3.91
2022-12-31T18:08:44.172Z,3.81
2022-12-31T18:11:23.307Z,3.74
2022-12-31T18:13:54.159Z,3.81
2022-12-31T18:16:23.879Z,3.84
2022-12-31T18:18:50.958Z,3.99
2022-12-31T18:21:29.540Z,4.06
2022-12-31T18:26:26.948Z,4.12
2022-12-31T18:28:54.320Z,4.13
2022-12-31T18:31:29.869Z,4.18
2022-12-31T18:33:59.057Z,4.17
2022-12-31T18:36:29.188Z,4.14
2022-12-31T18:38:56.426Z,4.13
2022-12-31T18:41:28.461Z,4.10
2022-12-31T18:43:56.205Z,3.93
2022-12-31T18:46:24.830Z,3.58
2022-12-31T18:48:51.906Z,3.72
2022-12-31T18:51:31.130Z,3.90
2022-12-31T18:54:00.419Z,3.69
2022-12-31T18:56:28.250Z,3.64
2022-12-31T18:58:55.790Z,3.85
2022-12-31T19:01:28.063Z,3.97
2022-12-31T19:04:00.387Z,4.06
2022-12-31T19:06:28.700Z,4.12
2022-12-31T19:08:56.223Z,4.16
2022-12-31T19:11:23.768Z,4.12
2022-12-31T19:13:50.921Z,4.09
2022-12-31T19:16:18.211Z,4.00
2022-12-31T19:18:45.708Z,3.96
2022-12-31T19:21:21.751Z,3.96
2022-12-31T19:23:49.794Z,3.69
2022-12-31T19:26:19.692Z,3.36
2022-12-31T19:28:47.544Z,3.39
2022-12-31T19:31:18.096Z,3.59
2022-12-31T19:33:45.124Z,3.73
2022-12-31T19:36:20.470Z,3.88
2022-12-31T19:38:47.754Z,3.86
2022-12-31T19:41:20.051Z,3.59
2022-12-31T19:43:47.935Z,3.48
2022-12-31T19:46:16.607Z,3.47
2022-12-31T19:48:44.400Z,3.44
2022-12-31T19:51:16.620Z,3.40
2022-12-31T19:53:44.496Z,3.41
2022-12-31T19:56:21.111Z,3.45
2022-12-31T19:58:48.053Z,3.49
2022-12-31T20:01:20.486Z,3.51
2022-12-31T20:03:48.166Z,3.43
2022-12-31T20:06:15.314Z,3.31
2022-12-31T20:08:42.459Z,3.26
2022-12-31T20:11:15.100Z,3.30
2022-12-31T20:13:42.351Z,3.45
2022-12-31T20:16:13.310Z,3.41
2022-12-31T20:18:42.081Z,3.45
2022-12-31T20:21:15.930Z,3.53
2022-12-31T20:23:42.983Z,3.53
2022-12-31T20:26:12.392Z,3.42
2022-12-31T20:28:39.866Z,3.42
2022-12-31T20:31:12.303Z,3.46
2022-12-31T20:33:42.679Z,3.46
2022-12-31T20:36:12.673Z,3.38
2022-12-31T20:38:39.855Z,3.37
2022-12-31T20:41:15.537Z,3.25
2022-12-31T20:43:42.657Z,3.10
2022-12-31T20:46:15.204Z,3.02
2022-12-31T20:48:44.203Z,2.98
2022-12-31T20:51:11.887Z,2.98
2022-12-31T20:53:39.099Z,2.82
2022-12-31T20:56:09.429Z,2.82
2022-12-31T20:58:37.380Z,2.90
2022-12-31T21:01:09.582Z,2.98
2022-12-31T21:06:26.033Z,2.75
2022-12-31T21:08:54.367Z,2.89
2022-12-31T21:11:21.514Z,2.83
2022-12-31T21:13:51.776Z,2.89
2022-12-31T21:16:19.069Z,2.90
2022-12-31T21:18:50.529Z,2.92
2022-12-31T21:21:17.988Z,2.95
2022-12-31T21:23:46.013Z,2.97
2022-12-31T21:26:13.202Z,2.93
2022-12-31T21:28:40.156Z,2.97
2022-12-31T21:31:08.960Z,3.00
2022-12-31T21:33:36.086Z,3.07
2022-12-31T21:36:04.909Z,3.09
2022-12-31T21:38:32.350Z,3.09
2022-12-31T21:41:07.096Z,3.02
2022-12-31T21:43:34.236Z,3.00
2022-12-31T21:46:03.131Z,2.94
2022-12-31T21:48:30.388Z,2.92
2022-12-31T21:51:16.365Z,2.82
2022-12-31T21:53:43.361Z,2.71
2022-12-31T21:56:13.415Z,2.68
2022-12-31T21:58:43.048Z,2.64
2022-12-31T22:01:21.540Z,2.70
2022-12-31T22:03:48.789Z,2.74
2022-12-31T22:06:20.701Z,2.77
2022-12-31T22:08:53.386Z,2.75
2022-12-31T22:11:22.877Z,2.79
2022-12-31T22:13:50.668Z,2.75
2022-12-31T22:16:19.061Z,2.77
2022-12-31T22:18:46.374Z,2.67
2022-12-31T22:21:19.501Z,2.53
2022-12-31T22:23:52.380Z,2.67
2022-12-31T22:26:22.367Z,2.80
2022-12-31T22:28:50.056Z,2.40
2022-12-31T22:31:19.887Z,2.32
2022-12-31T22:33:47.285Z,2.50
2022-12-31T22:36:17.436Z,2.65
2022-12-31T22:38:44.989Z,2.71
2022-12-31T22:41:17.617Z,2.73
2022-12-31T22:43:47.457Z,2.79
2022-12-31T22:46:17.960Z,2.80
2022-12-31T22:48:45.281Z,2.78
2022-12-31T22:51:13.335Z,2.83
2022-12-31T22:53:40.473Z,2.88
2022-12-31T22:56:09.333Z,2.82
2022-12-31T22:58:36.888Z,2.82
2022-12-31T23:01:09.568Z,2.81
2022-12-31T23:03:36.661Z,2.87
2022-12-31T23:06:03.690Z,2.87
2022-12-31T23:08:31.011Z,2.87
2022-12-31T23:10:59.511Z,2.86
2022-12-31T23:13:28.730Z,2.87
2022-12-31T23:15:55.698Z,2.82
2022-12-31T23:18:22.612Z,2.83
2022-12-31T23:20:49.464Z,2.88
2022-12-31T23:23:17.049Z,2.84
2022-12-31T23:25:51.870Z,2.71
2022-12-31T23:28:25.045Z,2.65
2022-12-31T23:30:53.019Z,2.66
2022-12-31T23:33:22.310Z,2.70
2022-12-31T23:35:49.585Z,2.62
2022-12-31T23:38:18.015Z,2.58
2022-12-31T23:40:45.476Z,2.61
2022-12-31T23:43:20.519Z,2.53
2022-12-31T23:45:51.279Z,2.30
2022-12-31T23:48:18.201Z,2.37
2022-12-31T23:50:50.813Z,2.18
2022-12-31T23:53:19.486Z,1.67
2022-12-31T23:55:46.396Z,1.48
2022-12-31T23:58:13.423Z,1.53
